Time;durP1;ratioP1;P1;durP2;ratioP2;P2;SDS_P1;SDS_P2;PMS_P1;PMS_P2;Temp;Humidity;BMP_temperature;BMP_pressure;BME280_temperature;BME280_humidity;BME280_pressure;Samples;Min_cycle;Max_cycle;Signal;HPM_P1;HPM_P2
2021/11/20 07:22:26;;;;;;;13.00;5.25;;;;;;;;;;4862460;29;20067;-75
2021/11/20 07:33:33;;;;;;;12.43;5.47;;;;;;;;;;4853855;29;20505;-76
2021/11/20 07:39:54;;;;;;;14.50;5.22;;;;;;;;;;4859122;29;20503;-78
2021/11/20 08:22:55;;;;;;;14.93;4.90;;;;;;;;;;4856184;29;20046;-78
2021/11/20 08:38:57;;;;;;;13.02;5.28;;;;;;;;;;4854049;29;20041;-78
2021/11/20 08:41:33;;;;;;;14.45;5.30;;;;;;;;;;4854612;29;20496;-78
2021/11/20 08:48:44;;;;;;;13.50;6.03;;;;;;;;;;4859201;29;20515;-77
2021/11/20 08:51:16;;;;;;;12.63;5.32;;;;;;;;;;4841052;29;20085;-74
2021/11/20 08:53:49;;;;;;;14.13;5.68;;;;;;;;;;4832026;29;20071;-75
2021/11/20 08:56:19;;;;;;;13.30;5.88;;;;;;;;;;4833160;29;21022;-75
2021/11/20 08:59:03;;;;;;;16.00;5.93;;;;;;;;;;4856411;29;20065;-75
2021/11/20 09:02:14;;;;;;;16.07;5.87;;;;;;;;;;4822419;29;20116;-76
2021/11/20 09:04:56;;;;;;;14.80;5.80;;;;;;;;;;4783647;29;20455;-75
2021/11/20 09:11:57;;;;;;;13.93;5.97;;;;;;;;;;4857292;29;20083;-77
2021/11/20 09:14:31;;;;;;;12.93;5.63;;;;;;;;;;4858705;29;20102;-78
2021/11/20 09:26:17;;;;;;;16.38;5.80;;;;;;;;;;4901862;29;20060;-76
2021/11/20 10:04:53;;;;;;;16.05;5.80;;;;;;;;;;4895309;29;20552;-78
2021/11/20 10:07:49;;;;;;;11.73;5.28;;;;;;;;;;4897102;29;20084;-78
2021/11/20 10:19:45;;;;;;;14.57;6.50;;;;;;;;;;4900066;29;20115;-78
2021/11/20 10:23:04;;;;;;;18.70;6.32;;;;;;;;;;4904279;29;20061;-78
2021/11/20 11:11:31;;;;;;;18.33;6.85;;;;;;;;;;4839290;29;20164;-75
2021/11/20 11:14:33;;;;;;;16.65;5.90;;;;;;;;;;4841231;29;20424;-76
2021/11/20 11:17:04;;;;;;;14.63;6.47;;;;;;;;;;4858308;29;20056;-75
2021/11/20 11:23:19;;;;;;;17.38;6.85;;;;;;;;;;4842261;29;20050;-75
2021/11/20 11:35:17;;;;;;;18.80;6.83;;;;;;;;;;4854551;29;20046;-78
2021/11/20 11:38:08;;;;;;;17.77;6.95;;;;;;;;;;4849600;29;20062;-77
2021/11/20 11:45:09;;;;;;;14.38;6.22;;;;;;;;;;4851440;29;20114;-75
2021/11/20 14:06:06;;;;;;;11.98;5.50;;;;;;;;;;5291479;23;20056;-79
2021/11/20 14:28:58;;;;;;;15.25;5.50;;;;;;;;;;5235434;23;20391;-79
2021/11/20 15:00:38;;;;;;;11.45;5.40;;;;;;;;;;5086930;23;20754;-82
2021/11/20 15:03:08;;;;;;;13.60;5.88;;;;;;;;;;4866784;29;20076;-80
2021/11/20 15:05:37;;;;;;;12.32;5.47;;;;;;;;;;4858158;29;20061;-81
2021/11/20 15:08:06;;;;;;;11.93;5.63;;;;;;;;;;4849836;29;20555;-84
2021/11/20 15:10:37;;;;;;;12.10;5.63;;;;;;;;;;4865440;29;20122;-83
2021/11/20 15:13:06;;;;;;;16.95;5.97;;;;;;;;;;4860097;29;20060;-81
2021/11/20 15:16:03;;;;;;;13.52;5.68;;;;;;;;;;4870730;29;20068;-83
2021/11/20 15:18:33;;;;;;;13.07;5.15;;;;;;;;;;4866522;29;20114;-83
2021/11/20 15:21:04;;;;;;;12.55;4.72;;;;;;;;;;4900011;29;20057;-88
2021/11/20 15:23:34;;;;;;;11.53;5.63;;;;;;;;;;4866919;29;20104;-89
2021/11/20 15:26:04;;;;;;;14.32;5.60;;;;;;;;;;4863238;29;20097;-89
2021/11/20 15:28:34;;;;;;;10.90;5.32;;;;;;;;;;4861855;29;20140;-86
2021/11/20 15:31:04;;;;;;;11.77;5.40;;;;;;;;;;4867727;29;20081;-82
2021/11/20 15:33:36;;;;;;;11.05;4.72;;;;;;;;;;4869910;29;20061;-84
2021/11/20 15:36:31;;;;;;;13.83;5.90;;;;;;;;;;4861404;29;20133;-79
2021/11/20 15:39:00;;;;;;;14.70;5.88;;;;;;;;;;4869669;29;20084;-80
2021/11/20 15:41:29;;;;;;;13.93;5.78;;;;;;;;;;4867349;29;20057;-79
2021/11/20 15:44:01;;;;;;;16.15;5.97;;;;;;;;;;4851019;29;20184;-80
2021/11/20 15:46:31;;;;;;;15.35;5.63;;;;;;;;;;4865040;29;20569;-80
2021/11/20 15:49:01;;;;;;;12.63;5.90;;;;;;;;;;4871503;29;20164;-82
2021/11/20 15:51:30;;;;;;;14.95;6.10;;;;;;;;;;4870189;29;20069;-81
2021/11/20 15:54:01;;;;;;;15.73;6.13;;;;;;;;;;4865970;29;20065;-84
2021/11/20 15:56:29;;;;;;;11.50;4.85;;;;;;;;;;4875799;29;20140;-83
2021/11/20 15:59:07;;;;;;;15.32;6.28;;;;;;;;;;4876174;29;20068;-84
2021/11/20 16:01:41;;;;;;;13.77;4.90;;;;;;;;;;4878601;29;20053;-88
2021/11/20 16:04:11;;;;;;;11.18;4.75;;;;;;;;;;4868135;29;20059;-85
2021/11/20 16:06:43;;;;;;;13.27;5.13;;;;;;;;;;4864303;29;20112;-85
2021/11/20 16:09:11;;;;;;;11.13;5.32;;;;;;;;;;4871141;29;20060;-85
2021/11/20 16:11:42;;;;;;;12.45;5.03;;;;;;;;;;4872408;29;20077;-76
2021/11/20 16:14:18;;;;;;;13.60;5.43;;;;;;;;;;4869658;29;20061;-75
2021/11/20 16:16:49;;;;;;;12.32;5.82;;;;;;;;;;4877387;29;20449;-78
2021/11/20 16:19:21;;;;;;;11.25;4.80;;;;;;;;;;4871610;29;20053;-75
2021/11/20 16:21:52;;;;;;;9.55;4.60;;;;;;;;;;4877714;29;20088;-74
2021/11/20 16:24:20;;;;;;;13.48;5.32;;;;;;;;;;4891075;29;20061;-75
2021/11/20 16:26:51;;;;;;;12.07;4.13;;;;;;;;;;4887586;29;20101;-76
2021/11/20 16:29:20;;;;;;;10.40;4.38;;;;;;;;;;4870629;29;20049;-75
2021/11/20 16:31:50;;;;;;;13.73;5.43;;;;;;;;;;4865243;29;20060;-75
2021/11/20 16:34:19;;;;;;;11.43;5.70;;;;;;;;;;4863885;29;20104;-75
2021/11/20 16:36:53;;;;;;;9.82;4.47;;;;;;;;;;4871379;29;20064;-76
2021/11/20 16:39:49;;;;;;;11.63;5.57;;;;;;;;;;4873595;29;20057;-76
2021/11/20 16:42:20;;;;;;;11.60;5.32;;;;;;;;;;4863743;29;20586;-76
2021/11/20 16:44:51;;;;;;;10.68;4.45;;;;;;;;;;4870716;29;20085;-76
2021/11/20 16:47:23;;;;;;;12.68;4.53;;;;;;;;;;4863146;29;20088;-76
2021/11/20 16:49:52;;;;;;;11.20;4.57;;;;;;;;;;4864064;29;20251;-76
2021/11/20 16:55:18;;;;;;;13.80;5.38;;;;;;;;;;4862513;29;20097;-75
2021/11/20 16:57:49;;;;;;;12.60;5.22;;;;;;;;;;4870440;29;20048;-74
2021/11/20 17:00:19;;;;;;;11.95;5.13;;;;;;;;;;4854213;29;20686;-75
2021/11/20 17:02:50;;;;;;;12.40;5.68;;;;;;;;;;4871437;29;20542;-74
2021/11/20 17:05:20;;;;;;;8.83;4.30;;;;;;;;;;4873049;29;20397;-73
2021/11/20 17:07:49;;;;;;;12.27;5.28;;;;;;;;;;4871601;29;20407;-73
2021/11/20 17:10:17;;;;;;;13.43;5.65;;;;;;;;;;4871373;29;20057;-73
2021/11/20 17:12:46;;;;;;;15.02;6.15;;;;;;;;;;4875635;29;20079;-74
2021/11/20 17:15:15;;;;;;;8.95;4.60;;;;;;;;;;4873900;29;20060;-74
2021/11/20 17:17:44;;;;;;;11.40;5.53;;;;;;;;;;4872097;29;20049;-74
2021/11/20 17:20:14;;;;;;;17.23;7.50;;;;;;;;;;4866555;29;20114;-74
2021/11/20 17:22:46;;;;;;;15.38;7.20;;;;;;;;;;4865676;29;20140;-74
2021/11/20 17:25:15;;;;;;;46.97;33.30;;;;;;;;;;4869879;29;20520;-74
2021/11/20 17:27:47;;;;;;;18.13;8.20;;;;;;;;;;4854344;29;20105;-74
2021/11/20 17:30:16;;;;;;;14.20;7.57;;;;;;;;;;4875801;29;20579;-74
2021/11/20 17:32:44;;;;;;;14.35;6.13;;;;;;;;;;4883206;29;20046;-74
2021/11/20 17:35:15;;;;;;;13.23;6.15;;;;;;;;;;4865672;29;20100;-77
2021/11/20 17:37:45;;;;;;;14.45;6.05;;;;;;;;;;4887739;29;20081;-76
2021/11/20 17:40:14;;;;;;;15.25;6.05;;;;;;;;;;4847506;29;20093;-77
2021/11/20 17:42:43;;;;;;;17.97;7.07;;;;;;;;;;4866216;29;20053;-76
2021/11/20 17:45:12;;;;;;;13.35;6.68;;;;;;;;;;4865219;29;20129;-77
2021/11/20 17:47:42;;;;;;;14.27;6.13;;;;;;;;;;4841304;29;20059;-78
2021/11/20 17:50:13;;;;;;;22.88;10.35;;;;;;;;;;4861942;29;20056;-80
2021/11/20 17:52:44;;;;;;;26.40;14.60;;;;;;;;;;4863162;29;20071;-80
2021/11/20 17:55:13;;;;;;;13.47;6.80;;;;;;;;;;4862859;29;20148;-78
2021/11/20 17:57:42;;;;;;;16.10;6.45;;;;;;;;;;4867158;29;20144;-79
2021/11/20 18:00:16;;;;;;;18.42;5.75;;;;;;;;;;4865652;29;20064;-77
2021/11/20 18:02:46;;;;;;;15.32;5.75;;;;;;;;;;4882354;29;20088;-78
2021/11/20 18:05:15;;;;;;;13.32;5.47;;;;;;;;;;4883864;29;20080;-78
2021/11/20 18:07:45;;;;;;;12.63;5.80;;;;;;;;;;4887775;29;20101;-79
2021/11/20 18:10:15;;;;;;;17.10;6.25;;;;;;;;;;4895781;29;20048;-81
2021/11/20 18:12:45;;;;;;;12.95;4.78;;;;;;;;;;4882727;29;20085;-81
2021/11/20 18:15:15;;;;;;;15.98;6.32;;;;;;;;;;4886110;29;20048;-77
2021/11/20 18:17:44;;;;;;;13.93;5.85;;;;;;;;;;4865820;29;20060;-79
2021/11/20 18:20:34;;;;;;;15.77;7.43;;;;;;;;;;4888686;29;20136;-78
2021/11/20 18:23:05;;;;;;;16.52;6.68;;;;;;;;;;4876900;29;20052;-78
2021/11/20 18:25:35;;;;;;;15.45;7.15;;;;;;;;;;4889276;29;20124;-78
2021/11/20 18:28:07;;;;;;;15.35;8.27;;;;;;;;;;4908853;29;20056;-76
2021/11/20 18:30:37;;;;;;;16.73;7.43;;;;;;;;;;4890877;29;20415;-76
2021/11/20 18:33:06;;;;;;;15.00;6.83;;;;;;;;;;4889064;29;20424;-76
2021/11/20 18:35:34;;;;;;;12.70;5.65;;;;;;;;;;4896466;29;20128;-77
2021/11/20 18:38:04;;;;;;;15.80;6.40;;;;;;;;;;4907863;29;20037;-77
2021/11/20 18:40:34;;;;;;;14.48;6.07;;;;;;;;;;4887353;29;20058;-77
2021/11/20 18:43:03;;;;;;;16.58;6.65;;;;;;;;;;4895696;29;20081;-76
2021/11/20 18:45:33;;;;;;;17.27;7.23;;;;;;;;;;4893409;29;20052;-76
2021/11/20 18:48:03;;;;;;;14.32;5.90;;;;;;;;;;4897113;29;20140;-76
2021/11/20 18:50:33;;;;;;;13.73;6.72;;;;;;;;;;4871177;29;20057;-77
2021/11/20 18:53:02;;;;;;;14.38;6.38;;;;;;;;;;4877685;29;20061;-76
2021/11/20 18:55:34;;;;;;;15.07;6.10;;;;;;;;;;4888756;29;20436;-76
2021/11/20 18:58:03;;;;;;;20.53;9.60;;;;;;;;;;4895336;29;20056;-76
2021/11/20 19:00:34;;;;;;;18.35;7.72;;;;;;;;;;4884255;29;20582;-77
2021/11/20 19:03:03;;;;;;;17.30;8.02;;;;;;;;;;4870515;29;20056;-77
2021/11/20 19:05:33;;;;;;;20.45;6.75;;;;;;;;;;4890244;29;20090;-75
2021/11/20 19:08:03;;;;;;;17.08;7.32;;;;;;;;;;4887898;29;20553;-76
2021/11/20 19:10:33;;;;;;;18.57;7.17;;;;;;;;;;4891597;29;20056;-76
2021/11/20 19:13:02;;;;;;;14.68;6.10;;;;;;;;;;4911117;29;20238;-77
2021/11/20 19:15:31;;;;;;;15.98;7.70;;;;;;;;;;4895588;29;20088;-76
2021/11/20 19:18:01;;;;;;;18.75;6.75;;;;;;;;;;4895820;29;20125;-75
2021/11/20 19:20:30;;;;;;;16.88;7.43;;;;;;;;;;4892880;29;20049;-76
2021/11/20 19:22:59;;;;;;;20.90;9.83;;;;;;;;;;4892314;29;20515;-79
2021/11/20 19:25:28;;;;;;;20.63;8.98;;;;;;;;;;4893106;29;20071;-78
2021/11/20 19:27:58;;;;;;;17.42;7.70;;;;;;;;;;4890908;29;20141;-76
2021/11/20 19:30:27;;;;;;;14.10;7.53;;;;;;;;;;4910805;29;20052;-76
2021/11/20 19:35:49;;;;;;;24.97;10.60;;;;;;;;;;4893963;29;20072;-76
2021/11/20 19:38:18;;;;;;;26.20;11.85;;;;;;;;;;4894350;29;20462;-75
2021/11/20 19:40:48;;;;;;;24.95;10.35;;;;;;;;;;4887423;29;20135;-77
2021/11/20 19:43:18;;;;;;;35.08;16.33;;;;;;;;;;4911139;29;20097;-77
2021/11/20 19:49:07;;;;;;;15.40;5.93;;;;;;;;;;4891424;29;20067;-78
2021/11/20 19:51:36;;;;;;;18.27;8.73;;;;;;;;;;4873228;29;20247;-77
2021/11/20 19:54:05;;;;;;;14.18;6.43;;;;;;;;;;4882922;29;20085;-76
2021/11/20 19:59:30;;;;;;;13.77;5.85;;;;;;;;;;4884830;29;20063;-76
2021/11/20 20:02:00;;;;;;;15.63;6.37;;;;;;;;;;4875687;29;20048;-77
2021/11/20 20:04:30;;;;;;;14.25;5.80;;;;;;;;;;4867902;29;20068;-75
2021/11/20 20:07:01;;;;;;;19.85;7.53;;;;;;;;;;4868247;29;20525;-77
2021/11/20 20:09:30;;;;;;;16.20;6.40;;;;;;;;;;4873627;29;20057;-77
2021/11/20 20:11:58;;;;;;;18.23;6.65;;;;;;;;;;4866119;29;20053;-76
2021/11/20 20:14:36;;;;;;;15.27;6.60;;;;;;;;;;4889383;29;20121;-77
2021/11/20 20:17:05;;;;;;;13.95;5.93;;;;;;;;;;4864586;29;20512;-76
2021/11/20 20:19:39;;;;;;;19.35;8.75;;;;;;;;;;4863770;29;20058;-76
2021/11/20 20:22:08;;;;;;;16.40;6.10;;;;;;;;;;4874737;29;20141;-76
2021/11/20 20:24:38;;;;;;;16.77;5.95;;;;;;;;;;4859774;29;20065;-76
2021/11/20 20:27:07;;;;;;;14.37;6.00;;;;;;;;;;4860830;29;20454;-77
2021/11/20 20:29:37;;;;;;;14.55;6.30;;;;;;;;;;4864547;29;20101;-76
2021/11/20 20:32:06;;;;;;;15.05;5.50;;;;;;;;;;4866869;29;20049;-77
2021/11/20 20:34:36;;;;;;;17.85;6.32;;;;;;;;;;4869348;29;20050;-76
2021/11/20 20:37:05;;;;;;;16.00;6.15;;;;;;;;;;4866751;29;20575;-77
2021/11/20 20:39:45;;;;;;;19.97;6.60;;;;;;;;;;4868851;29;20057;-77
2021/11/20 20:42:15;;;;;;;13.48;5.25;;;;;;;;;;4863458;29;20065;-76
2021/11/20 20:44:47;;;;;;;12.77;5.80;;;;;;;;;;4871708;29;20539;-76
2021/11/20 20:47:41;;;;;;;19.98;10.77;;;;;;;;;;4874989;29;20060;-75
2021/11/20 20:50:12;;;;;;;13.05;5.85;;;;;;;;;;4877648;29;20650;-76
2021/11/20 20:52:41;;;;;;;19.37;7.67;;;;;;;;;;4861588;29;20055;-76
2021/11/20 20:55:10;;;;;;;53.40;25.13;;;;;;;;;;4860817;29;20073;-76
2021/11/20 21:00:34;;;;;;;29.00;12.73;;;;;;;;;;4852451;29;20083;-77
2021/11/20 21:03:04;;;;;;;20.30;8.13;;;;;;;;;;4863510;29;20061;-77
2021/11/20 21:05:33;;;;;;;13.10;5.87;;;;;;;;;;4872203;29;20459;-76
2021/11/20 21:08:01;;;;;;;12.68;6.28;;;;;;;;;;4859651;29;20042;-77
2021/11/20 21:10:30;;;;;;;11.02;5.72;;;;;;;;;;4885728;29;20249;-76
2021/11/20 21:12:58;;;;;;;18.35;7.03;;;;;;;;;;4862335;29;20512;-77
2021/11/20 21:15:32;;;;;;;18.45;8.48;;;;;;;;;;4861737;29;20057;-77
2021/11/20 21:18:05;;;;;;;16.77;6.87;;;;;;;;;;4853701;29;20155;-76
2021/11/20 21:23:21;;;;;;;17.70;7.05;;;;;;;;;;4864220;29;20057;-77
2021/11/20 21:25:53;;;;;;;21.83;8.27;;;;;;;;;;4870141;29;20125;-76
2021/11/20 21:28:22;;;;;;;14.65;5.68;;;;;;;;;;4869605;29;20153;-77
2021/11/20 21:30:53;;;;;;;15.37;5.60;;;;;;;;;;4863190;29;20137;-76
2021/11/20 21:33:26;;;;;;;18.35;8.70;;;;;;;;;;4885246;29;20056;-76
2021/11/20 21:35:55;;;;;;;14.23;7.07;;;;;;;;;;4865474;29;20529;-77
2021/11/20 21:38:23;;;;;;;13.30;5.72;;;;;;;;;;4872023;29;20057;-74
2021/11/20 21:40:52;;;;;;;14.27;6.70;;;;;;;;;;4864607;29;20552;-76
2021/11/20 21:43:21;;;;;;;14.47;6.33;;;;;;;;;;4861146;29;20058;-75
2021/11/20 21:49:09;;;;;;;11.77;6.25;;;;;;;;;;4873884;29;20053;-76
2021/11/20 21:51:39;;;;;;;17.73;7.60;;;;;;;;;;4877283;29;20108;-76
2021/11/20 21:54:08;;;;;;;12.85;6.38;;;;;;;;;;4887374;29;20045;-75
2021/11/20 21:56:37;;;;;;;18.03;6.50;;;;;;;;;;4884271;29;20089;-77
2021/11/20 21:59:33;;;;;;;17.05;6.05;;;;;;;;;;4875159;29;20502;-76
2021/11/20 22:02:03;;;;;;;14.32;6.43;;;;;;;;;;5035384;23;20068;-74
2021/11/20 22:04:35;;;;;;;14.93;6.35;;;;;;;;;;4877088;29;20060;-74
2021/11/20 22:07:04;;;;;;;16.45;6.90;;;;;;;;;;4887569;29;20345;-74
2021/11/20 22:09:32;;;;;;;13.40;5.80;;;;;;;;;;4883317;29;20074;-74
2021/11/20 22:12:01;;;;;;;14.15;5.93;;;;;;;;;;4891454;29;20049;-74
2021/11/20 22:14:32;;;;;;;16.73;7.63;;;;;;;;;;4892618;29;20071;-74
2021/11/20 22:17:02;;;;;;;17.40;7.25;;;;;;;;;;4891046;29;20060;-75
2021/11/20 22:19:31;;;;;;;14.45;6.30;;;;;;;;;;4889237;29;20064;-74
2021/11/20 22:22:02;;;;;;;13.57;5.70;;;;;;;;;;4894549;29;20052;-74
2021/11/20 22:24:36;;;;;;;19.10;6.97;;;;;;;;;;4891590;29;20041;-74
2021/11/20 22:27:07;;;;;;;15.98;6.75;;;;;;;;;;4892151;29;20056;-74
2021/11/20 22:29:37;;;;;;;14.95;6.40;;;;;;;;;;4884649;29;20077;-74
2021/11/20 22:32:06;;;;;;;18.95;8.43;;;;;;;;;;4893877;29;20053;-74
2021/11/20 22:34:35;;;;;;;24.93;10.30;;;;;;;;;;4888342;29;20495;-74
2021/11/20 22:37:06;;;;;;;18.70;7.47;;;;;;;;;;4893250;29;20069;-74
2021/11/20 22:39:37;;;;;;;81.95;39.85;;;;;;;;;;4892922;29;20427;-74
2021/11/20 22:42:07;;;;;;;30.15;13.90;;;;;;;;;;4891938;29;20160;-74
2021/11/20 22:44:36;;;;;;;22.70;8.40;;;;;;;;;;4898272;29;20056;-74
2021/11/20 22:47:08;;;;;;;15.03;6.93;;;;;;;;;;4884414;29;20419;-74
2021/11/20 22:49:39;;;;;;;23.58;9.85;;;;;;;;;;4888534;29;20103;-74
2021/11/20 22:52:12;;;;;;;40.65;14.07;;;;;;;;;;4894295;29;20509;-74
2021/11/20 22:54:41;;;;;;;46.45;18.17;;;;;;;;;;4884204;29;20105;-74
2021/11/20 22:57:11;;;;;;;23.17;10.57;;;;;;;;;;4890621;29;20135;-74
2021/11/20 22:59:40;;;;;;;15.60;7.20;;;;;;;;;;4891830;29;20091;-74
2021/11/20 23:02:33;;;;;;;16.80;7.13;;;;;;;;;;4893243;29;20650;-74
2021/11/20 23:05:03;;;;;;;17.52;8.40;;;;;;;;;;4887956;29;20124;-74
2021/11/20 23:07:33;;;;;;;17.50;6.22;;;;;;;;;;4884418;29;20063;-74
2021/11/20 23:10:01;;;;;;;21.02;8.20;;;;;;;;;;4889075;29;20055;-74
2021/11/20 23:12:30;;;;;;;23.17;9.20;;;;;;;;;;4876296;29;20061;-74
2021/11/20 23:14:59;;;;;;;16.35;6.82;;;;;;;;;;4875474;29;20108;-74
2021/11/20 23:17:28;;;;;;;26.77;10.35;;;;;;;;;;4893517;29;20457;-74
2021/11/20 23:19:57;;;;;;;80.45;35.15;;;;;;;;;;4889763;29;20479;-74
2021/11/20 23:22:27;;;;;;;31.58;13.27;;;;;;;;;;4872707;29;20064;-74
2021/11/20 23:25:17;;;;;;;35.07;16.97;;;;;;;;;;4888699;29;20060;-75
2021/11/20 23:27:46;;;;;;;26.48;10.93;;;;;;;;;;4894840;29;20087;-74
2021/11/20 23:30:15;;;;;;;21.15;9.30;;;;;;;;;;4893627;29;20095;-74
2021/11/20 23:32:43;;;;;;;17.83;7.63;;;;;;;;;;4891629;29;20052;-74
2021/11/20 23:35:12;;;;;;;17.48;7.50;;;;;;;;;;4887008;29;20080;-74
2021/11/20 23:37:40;;;;;;;19.57;7.97;;;;;;;;;;4888864;29;20496;-74
2021/11/20 23:40:12;;;;;;;17.60;7.90;;;;;;;;;;4893273;29;20058;-74
2021/11/20 23:42:43;;;;;;;16.17;7.50;;;;;;;;;;4897392;29;20120;-74
2021/11/20 23:45:12;;;;;;;16.90;7.03;;;;;;;;;;4891618;29;20057;-74
2021/11/20 23:47:41;;;;;;;20.58;6.93;;;;;;;;;;4895278;29;20100;-77
2021/11/20 23:50:11;;;;;;;14.83;6.17;;;;;;;;;;4894499;29;20474;-74
2021/11/20 23:52:40;;;;;;;17.80;7.20;;;;;;;;;;4893924;29;20076;-74
2021/11/20 23:55:10;;;;;;;14.57;7.18;;;;;;;;;;4876734;29;20530;-74
2021/11/20 23:57:39;;;;;;;13.90;6.50;;;;;;;;;;4891205;29;20502;-74
